Time;durP1;ratioP1;P1;durP2;ratioP2;P2;SDS_P1;SDS_P2;PMS_P1;PMS_P2;Temp;Humidity;BMP_temperature;BMP_pressure;BME280_temperature;BME280_humidity;BME280_pressure;Samples;Min_cycle;Max_cycle;Signal;HPM_P1;HPM_P2
2022/03/22 00:00:39;;;;;;;18.17;11.33;;;;;;;4.15;57.59;100900.25;5067065;28;20200;-70
2022/03/22 00:03:06;;;;;;;11.70;9.97;;;;;;;4.10;57.06;100880.69;5071264;28;20253;-71
2022/03/22 00:05:39;;;;;;;14.07;10.40;;;;;;;4.20;56.93;100898.66;5071970;28;20362;-71
2022/03/22 00:08:07;;;;;;;10.70;9.40;;;;;;;4.17;57.45;100893.50;5071131;28;20193;-71
2022/03/22 00:10:34;;;;;;;11.00;9.70;;;;;;;4.26;55.86;100890.31;5071596;28;20196;-70
2022/03/22 00:13:03;;;;;;;11.77;10.03;;;;;;;4.27;55.97;100896.22;5071799;28;20685;-71
2022/03/22 00:15:30;;;;;;;14.07;10.30;;;;;;;4.23;56.77;100897.88;5052827;28;20593;-70
2022/03/22 00:17:57;;;;;;;15.90;10.27;;;;;;;4.18;56.57;100882.53;5059655;28;20223;-71
2022/03/22 00:20:24;;;;;;;15.30;10.40;;;;;;;4.27;56.65;100879.31;5070944;28;20584;-70
2022/03/22 00:22:52;;;;;;;11.87;10.30;;;;;;;4.28;56.73;100886.13;5071260;28;20199;-71
2022/03/22 00:25:19;;;;;;;9.90;9.03;;;;;;;4.30;56.91;100883.63;5070505;28;20223;-70
2022/03/22 00:27:53;;;;;;;12.07;9.90;;;;;;;4.34;56.53;100886.22;5071355;28;20295;-70
2022/03/22 00:30:24;;;;;;;12.70;10.13;;;;;;;4.36;56.92;100888.81;5059873;28;20309;-71
2022/03/22 00:32:53;;;;;;;13.17;10.67;;;;;;;4.39;56.89;100888.88;5062745;28;20226;-70
2022/03/22 00:35:23;;;;;;;12.33;10.80;;;;;;;4.41;56.45;100887.19;5057903;28;20208;-71
2022/03/22 00:37:53;;;;;;;18.30;9.53;;;;;;;4.43;56.21;100888.06;5057149;28;20227;-71
2022/03/22 00:40:21;;;;;;;12.80;9.77;;;;;;;4.40;56.19;100886.34;5069930;28;20691;-71
2022/03/22 00:42:53;;;;;;;15.93;10.23;;;;;;;4.42;56.41;100878.75;5070919;28;20287;-70
2022/03/22 00:45:21;;;;;;;14.53;9.90;;;;;;;4.37;56.80;100865.09;5070534;28;20288;-71
2022/03/22 00:47:49;;;;;;;12.20;9.53;;;;;;;4.43;56.30;100865.22;5070815;28;20745;-70
2022/03/22 00:50:19;;;;;;;12.17;9.73;;;;;;;4.31;56.37;100847.22;5069186;28;20291;-71
2022/03/22 00:52:47;;;;;;;12.17;9.70;;;;;;;4.47;56.29;100869.53;5070808;28;20199;-70
2022/03/22 00:55:15;;;;;;;12.73;9.80;;;;;;;4.50;56.15;100861.97;5070669;28;20564;-70
2022/03/22 00:57:44;;;;;;;13.37;9.40;;;;;;;4.56;55.94;100868.00;5070578;28;20699;-70
2022/03/22 01:00:13;;;;;;;12.40;10.23;;;;;;;4.52;56.22;100865.41;5065048;28;20216;-70
2022/03/22 01:02:42;;;;;;;12.67;10.17;;;;;;;4.57;55.33;100863.78;5070163;28;20203;-71
2022/03/22 01:05:13;;;;;;;13.47;9.00;;;;;;;4.57;55.56;100863.78;5070574;28;20290;-71
2022/03/22 01:07:41;;;;;;;13.67;9.50;;;;;;;4.59;55.36;100857.03;5070191;28;20232;-70
2022/03/22 01:10:10;;;;;;;11.10;9.63;;;;;;;4.62;55.09;100852.03;5069919;28;20199;-71
2022/03/22 01:12:40;;;;;;;14.90;9.43;;;;;;;4.64;54.84;100851.22;5070211;28;20192;-71
2022/03/22 01:15:11;;;;;;;11.20;8.53;;;;;;;4.55;55.08;100830.75;5070212;28;20549;-71
2022/03/22 01:17:38;;;;;;;11.77;9.10;;;;;;;4.66;54.71;100838.53;5065231;28;20745;-71
2022/03/22 01:20:10;;;;;;;10.13;8.60;;;;;;;4.72;54.09;100833.56;5069802;28;20216;-71
2022/03/22 01:22:38;;;;;;;12.07;8.83;;;;;;;4.75;53.59;100828.53;5063677;28;20291;-71
2022/03/22 01:25:08;;;;;;;9.07;7.67;;;;;;;4.75;53.94;100828.53;5065283;28;22048;-70
2022/03/22 01:27:36;;;;;;;7.63;7.03;;;;;;;4.80;53.68;100821.84;5066255;28;20200;-71
2022/03/22 01:30:05;;;;;;;8.70;7.80;;;;;;;4.84;53.16;100828.69;5065538;28;20203;-71
2022/03/22 01:32:32;;;;;;;10.13;8.10;;;;;;;4.89;53.14;100810.97;5067099;28;20291;-71
2022/03/22 01:34:59;;;;;;;10.73;8.90;;;;;;;4.98;51.76;100811.09;5069761;28;20222;-70
2022/03/22 01:37:26;;;;;;;8.37;7.60;;;;;;;5.02;51.60;100795.06;5069808;28;20261;-71
2022/03/22 01:39:53;;;;;;;8.50;7.70;;;;;;;5.01;51.78;100799.28;5069495;28;20306;-70
2022/03/22 01:42:21;;;;;;;8.47;7.57;;;;;;;5.07;51.46;100796.81;5069410;28;20200;-71
2022/03/22 01:44:48;;;;;;;9.43;7.97;;;;;;;5.18;51.17;100805.47;5067792;28;20200;-71
2022/03/22 01:47:18;;;;;;;10.03;8.40;;;;;;;4.98;50.86;100761.13;5069560;28;20290;-71
2022/03/22 01:49:46;;;;;;;9.20;8.30;;;;;;;5.32;50.87;100802.28;5066331;28;20196;-71
2022/03/22 01:52:16;;;;;;;8.83;7.93;;;;;;;5.23;50.63;100783.50;5065834;28;20203;-70
2022/03/22 01:54:43;;;;;;;10.23;7.43;;;;;;;5.39;50.43;100804.06;5069991;28;20196;-71
2022/03/22 01:57:10;;;;;;;12.57;8.53;;;;;;;5.42;50.73;100801.56;5069046;28;20311;-71
2022/03/22 01:59:37;;;;;;;9.33;8.33;;;;;;;5.37;50.51;100790.44;5066702;28;20307;-71
2022/03/22 02:07:37;;;;;;;8.87;8.17;;;;;;;5.59;49.90;100800.09;5055897;28;20260;-71
2022/03/22 02:10:05;;;;;;;8.63;7.77;;;;;;;5.57;49.84;100789.03;5068957;28;20296;-71
2022/03/22 02:12:32;;;;;;;9.53;8.57;;;;;;;5.65;49.72;100784.91;5062610;28;20234;-71
2022/03/22 02:14:59;;;;;;;9.13;7.67;;;;;;;5.69;49.70;100784.94;5069272;28;20731;-71
2022/03/22 02:17:26;;;;;;;9.70;8.33;;;;;;;5.74;49.40;100787.53;5069410;28;20207;-71
2022/03/22 02:19:55;;;;;;;9.90;8.50;;;;;;;5.75;49.46;100789.25;5069625;28;20306;-71
2022/03/22 02:22:32;;;;;;;9.20;8.27;;;;;;;5.64;49.38;100755.19;5068744;28;20567;-70
2022/03/22 02:25:01;;;;;;;9.73;8.70;;;;;;;5.78;49.35;100786.75;5056614;28;20296;-71
2022/03/22 02:27:29;;;;;;;8.60;7.80;;;;;;;5.73;50.02;100775.66;5061778;28;20681;-71
2022/03/22 02:29:56;;;;;;;11.30;8.73;;;;;;;5.73;50.27;100775.66;5060111;28;20199;-71
2022/03/22 02:32:24;;;;;;;9.00;7.93;;;;;;;5.79;49.73;100780.81;5067988;28;20196;-70
2022/03/22 02:34:51;;;;;;;9.20;7.80;;;;;;;5.80;49.60;100782.53;5062332;28;20253;-71
2022/03/22 02:37:18;;;;;;;13.50;8.87;;;;;;;5.81;49.88;100781.69;5059468;28;20265;-70
2022/03/22 02:39:45;;;;;;;11.60;8.70;;;;;;;5.88;49.47;100778.38;5063936;28;20216;-71
2022/03/22 02:42:14;;;;;;;11.93;9.70;;;;;;;5.83;49.99;100775.78;5069107;28;20196;-71
2022/03/22 02:44:40;;;;;;;12.77;8.73;;;;;;;5.85;49.15;100764.78;5062771;28;20204;-71
2022/03/22 02:47:07;;;;;;;10.40;8.73;;;;;;;5.87;49.28;100763.97;5067249;28;20204;-71
2022/03/22 02:49:35;;;;;;;9.63;8.53;;;;;;;5.93;48.93;100769.13;5049366;28;20193;-70
2022/03/22 02:52:02;;;;;;;11.43;8.90;;;;;;;5.94;48.80;100760.66;5062539;28;20199;-71
2022/03/22 02:54:29;;;;;;;11.57;9.40;;;;;;;5.95;48.78;100764.88;5064007;28;20197;-70
2022/03/22 02:56:56;;;;;;;10.10;9.10;;;;;;;5.97;49.32;100765.78;5069121;28;20303;-71
2022/03/22 02:59:24;;;;;;;12.37;9.97;;;;;;;5.94;49.49;100765.75;5061797;28;20262;-71
2022/03/22 03:01:51;;;;;;;10.97;9.10;;;;;;;5.96;48.99;100765.75;5063346;28;20188;-71
2022/03/22 03:04:18;;;;;;;14.17;9.57;;;;;;;5.82;49.23;100752.84;5068884;28;20208;-72
2022/03/22 03:06:45;;;;;;;11.93;9.63;;;;;;;5.90;49.32;100758.91;5067259;28;20287;-71
2022/03/22 03:09:12;;;;;;;9.77;8.77;;;;;;;5.93;48.99;100753.84;5068267;28;20231;-71
2022/03/22 03:11:39;;;;;;;10.83;9.47;;;;;;;5.96;48.89;100761.50;5068912;28;20731;-70
2022/03/22 03:16:59;;;;;;;9.10;8.17;;;;;;;5.99;48.75;100753.06;5054966;28;20574;-71
2022/03/22 03:19:27;;;;;;;15.37;9.07;;;;;;;5.83;48.81;100736.75;5072460;28;20696;-71
2022/03/22 03:21:54;;;;;;;12.43;8.53;;;;;;;5.96;48.97;100758.97;5067907;28;20246;-71
2022/03/22 03:24:20;;;;;;;13.17;9.97;;;;;;;6.00;49.12;100760.72;5066380;28;20251;-71
2022/03/22 03:26:47;;;;;;;17.60;9.07;;;;;;;5.98;49.39;100762.38;5064419;28;20207;-70
2022/03/22 03:29:14;;;;;;;9.87;9.00;;;;;;;5.89;49.64;100752.09;5072183;28;20279;-71
2022/03/22 03:31:41;;;;;;;11.70;9.17;;;;;;;5.96;49.48;100763.22;5069118;28;20279;-71
2022/03/22 03:34:10;;;;;;;10.10;8.90;;;;;;;5.96;49.49;100758.97;5053956;28;20284;-71
2022/03/22 03:36:37;;;;;;;14.73;9.63;;;;;;;5.95;49.75;100756.41;5053915;28;20584;-71
2022/03/22 03:39:04;;;;;;;13.30;8.67;;;;;;;5.91;49.87;100750.44;5060752;28;20227;-70
2022/03/22 03:47:08;;;;;;;9.90;9.00;;;;;;;5.94;48.94;100737.75;5059845;28;20719;-70
2022/03/22 03:49:38;;;;;;;12.93;9.23;;;;;;;5.97;48.62;100740.31;5067591;28;20607;-70
2022/03/22 03:52:07;;;;;;;10.90;9.43;;;;;;;5.95;49.12;100741.97;5068895;28;20661;-70
2022/03/22 03:54:34;;;;;;;10.23;9.13;;;;;;;5.96;48.75;100733.53;5067506;28;20193;-70
2022/03/22 03:57:02;;;;;;;11.30;9.30;;;;;;;5.94;49.11;100735.22;5070613;28;20316;-70
2022/03/22 03:59:29;;;;;;;11.80;9.67;;;;;;;5.94;49.29;100732.66;5068037;28;20304;-70
2022/03/22 04:01:56;;;;;;;14.97;10.33;;;;;;;5.90;49.79;100728.38;5070474;28;20323;-70
2022/03/22 04:04:23;;;;;;;10.20;8.23;;;;;;;5.77;50.16;100727.38;5069696;28;20606;-70
2022/03/22 04:06:51;;;;;;;11.27;9.83;;;;;;;5.81;50.05;100739.28;5071510;28;20207;-70
2022/03/22 04:09:18;;;;;;;12.17;9.43;;;;;;;5.85;50.32;100735.06;5065957;28;20199;-70
2022/03/22 04:11:45;;;;;;;12.13;9.13;;;;;;;5.81;49.95;100738.44;5070219;28;20291;-70
2022/03/22 04:14:13;;;;;;;13.13;9.97;;;;;;;5.78;50.02;100743.50;5071073;28;20295;-70
2022/03/22 04:16:40;;;;;;;12.70;10.70;;;;;;;5.68;50.14;100732.38;5059166;28;20588;-71
2022/03/22 04:19:07;;;;;;;10.10;9.10;;;;;;;5.70;50.43;100745.09;5057172;28;20204;-69
2022/03/22 04:21:35;;;;;;;12.87;9.47;;;;;;;5.76;50.59;100742.59;5070100;28;20202;-70
2022/03/22 04:24:06;;;;;;;13.23;9.30;;;;;;;5.74;50.54;100741.75;5067288;28;20282;-70
2022/03/22 04:26:34;;;;;;;16.73;9.80;;;;;;;5.73;50.62;100734.94;5064068;28;20191;-70
2022/03/22 04:34:31;;;;;;;15.10;10.20;;;;;;;5.59;50.82;100734.78;5063785;28;20336;-70
2022/03/22 04:36:58;;;;;;;11.03;9.50;;;;;;;5.54;50.72;100727.94;5055250;28;20581;-70
2022/03/22 04:39:28;;;;;;;13.57;9.97;;;;;;;5.49;50.67;100720.28;5061485;28;20715;-70
2022/03/22 04:41:55;;;;;;;12.70;9.27;;;;;;;5.40;51.24;100709.13;5063071;28;20565;-72
2022/03/22 04:44:22;;;;;;;10.40;8.97;;;;;;;5.41;51.22;100721.88;5066592;28;20294;-69
2022/03/22 04:46:50;;;;;;;13.87;9.77;;;;;;;5.40;51.82;100725.22;5066265;28;20200;-70
2022/03/22 04:49:17;;;;;;;14.13;9.90;;;;;;;5.36;52.22;100720.13;5069995;28;20758;-70
2022/03/22 04:57:14;;;;;;;13.50;10.17;;;;;;;5.41;51.66;100728.63;5063387;28;20225;-71
2022/03/22 04:59:42;;;;;;;11.70;8.57;;;;;;;5.35;52.29;100720.94;5061763;28;20271;-71
2022/03/22 05:02:09;;;;;;;10.27;8.40;;;;;;;5.40;51.64;100734.53;5064161;28;20205;-71
2022/03/22 05:04:36;;;;;;;10.33;9.27;;;;;;;5.41;51.68;100728.63;5064673;28;20206;-69
2022/03/22 05:07:03;;;;;;;13.20;10.30;;;;;;;5.39;52.11;100717.59;5068420;28;20223;-69
2022/03/22 05:09:31;;;;;;;14.63;9.83;;;;;;;5.38;52.11;100716.75;5062094;28;20196;-69
2022/03/22 05:11:59;;;;;;;10.87;9.60;;;;;;;5.42;52.11;100718.50;5067595;28;20264;-70
2022/03/22 05:14:27;;;;;;;10.97;9.87;;;;;;;5.45;51.76;100722.75;5064603;28;20196;-70
2022/03/22 05:16:56;;;;;;;12.87;9.97;;;;;;;5.41;52.71;100721.00;5069895;28;20708;-70
2022/03/22 05:19:24;;;;;;;10.40;9.43;;;;;;;5.53;52.70;100716.91;5064166;28;20228;-71
2022/03/22 05:21:51;;;;;;;13.17;9.63;;;;;;;5.59;52.73;100713.59;5063768;28;20203;-70
2022/03/22 05:24:18;;;;;;;15.93;9.67;;;;;;;5.73;52.02;100722.22;5069238;28;20200;-70
2022/03/22 05:26:47;;;;;;;13.70;8.67;;;;;;;5.81;52.12;100718.06;5068947;28;20278;-70
2022/03/22 05:29:14;;;;;;;9.90;8.87;;;;;;;5.87;52.26;100702.91;5068511;28;20575;-70
2022/03/22 05:31:41;;;;;;;12.60;9.63;;;;;;;5.97;52.54;100704.69;5069485;28;20273;-70
2022/03/22 05:34:08;;;;;;;11.73;8.97;;;;;;;6.11;52.17;100698.00;5069636;28;20284;-71
2022/03/22 05:36:35;;;;;;;10.07;9.00;;;;;;;6.29;51.74;100698.19;5064256;28;20701;-70
2022/03/22 05:39:02;;;;;;;12.13;9.50;;;;;;;6.40;51.15;100693.16;5051074;28;20242;-70
2022/03/22 05:41:29;;;;;;;12.97;8.83;;;;;;;6.53;50.72;100686.44;5058796;28;20216;-71
2022/03/22 05:43:58;;;;;;;13.03;9.73;;;;;;;6.73;49.81;100689.97;5066230;28;20211;-70
2022/03/22 05:46:25;;;;;;;17.43;10.73;;;;;;;6.87;49.72;100696.00;5066531;28;20688;-71
2022/03/22 05:48:52;;;;;;;13.40;9.87;;;;;;;6.94;49.13;100685.00;5067891;28;20291;-70
2022/03/22 05:51:19;;;;;;;10.07;9.07;;;;;;;7.13;48.96;100697.00;5066422;28;20278;-70
2022/03/22 05:53:46;;;;;;;10.63;9.50;;;;;;;7.29;48.09;100693.66;5070129;28;20261;-71
2022/03/22 05:56:13;;;;;;;11.23;9.20;;;;;;;7.46;47.86;100690.31;5068032;28;20226;-70
2022/03/22 05:58:41;;;;;;;10.03;8.47;;;;;;;7.65;48.96;100692.06;5057487;28;20652;-71
2022/03/22 06:01:09;;;;;;;16.33;10.23;;;;;;;7.90;47.35;100691.25;5061340;28;20216;-70
2022/03/22 06:03:36;;;;;;;9.83;9.00;;;;;;;8.05;47.04;100688.69;5063477;28;20676;-71
2022/03/22 06:06:03;;;;;;;13.83;9.40;;;;;;;8.26;46.50;100686.16;5054653;28;20219;-70
2022/03/22 06:08:30;;;;;;;9.63;8.73;;;;;;;8.49;46.36;100685.34;5059132;28;20299;-71
2022/03/22 06:10:57;;;;;;;11.13;7.83;;;;;;;8.64;46.29;100690.41;5059329;28;20193;-71
2022/03/22 06:13:24;;;;;;;8.53;7.80;;;;;;;8.72;45.99;100688.69;5060350;28;20230;-70
2022/03/22 06:15:52;;;;;;;8.07;7.47;;;;;;;8.87;45.63;100693.78;5065650;28;20660;-70
2022/03/22 06:18:20;;;;;;;10.20;8.53;;;;;;;9.05;45.39;100695.44;5063794;28;20204;-71
2022/03/22 06:20:47;;;;;;;9.33;8.23;;;;;;;9.18;44.93;100695.38;5061469;28;20216;-70
2022/03/22 06:23:15;;;;;;;8.83;8.07;;;;;;;9.33;45.16;100690.19;5060998;28;20207;-70
2022/03/22 06:25:42;;;;;;;18.73;9.07;;;;;;;9.45;44.25;100689.28;5059925;28;20683;-70
2022/03/22 06:28:10;;;;;;;8.50;7.73;;;;;;;9.56;44.21;100687.53;5064780;28;20560;-71
2022/03/22 06:30:39;;;;;;;9.00;8.17;;;;;;;9.68;45.20;100692.56;5056898;28;20196;-71
2022/03/22 06:33:10;;;;;;;8.17;7.47;;;;;;;9.80;44.04;100677.13;5059789;28;20990;-71
2022/03/22 06:35:39;;;;;;;8.83;8.00;;;;;;;10.05;43.82;100677.78;5056905;28;20331;-69
2022/03/22 06:38:06;;;;;;;8.53;7.93;;;;;;;10.13;42.60;100670.91;5056600;28;20212;-69
2022/03/22 06:40:35;;;;;;;8.67;7.77;;;;;;;10.28;42.63;100681.06;5065126;28;20215;-70
2022/03/22 06:43:03;;;;;;;8.97;7.90;;;;;;;10.42;43.12;100668.97;5055492;28;20693;-69
2022/03/22 06:45:29;;;;;;;10.07;8.17;;;;;;;10.52;40.61;100675.72;5062708;28;20207;-70
2022/03/22 06:47:56;;;;;;;14.60;7.13;;;;;;;10.65;42.11;100673.03;5056993;28;20298;-69
2022/03/22 06:50:25;;;;;;;8.07;7.20;;;;;;;10.78;40.58;100672.03;5061096;28;20283;-71
2022/03/22 06:52:54;;;;;;;14.53;7.67;;;;;;;10.98;40.88;100670.09;5065364;28;20204;-70
2022/03/22 06:55:22;;;;;;;8.37;7.67;;;;;;;11.05;41.21;100653.75;5067409;28;20217;-71
2022/03/22 06:57:51;;;;;;;8.63;7.43;;;;;;;11.17;40.39;100650.19;5062934;28;20232;-70
2022/03/22 07:00:19;;;;;;;18.93;7.80;;;;;;;11.41;41.13;100658.41;5064937;28;20693;-70
2022/03/22 07:02:47;;;;;;;8.13;7.33;;;;;;;11.62;40.75;100659.00;5062561;28;20258;-70
2022/03/22 07:05:15;;;;;;;13.83;7.63;;;;;;;11.76;39.43;100646.84;5056045;28;20203;-69
2022/03/22 07:07:43;;;;;;;8.23;7.53;;;;;;;11.96;38.12;100660.19;5066768;28;20204;-71
2022/03/22 07:10:13;;;;;;;7.40;6.87;;;;;;;12.00;39.51;100642.16;5062914;28;20205;-69
2022/03/22 07:12:48;;;;;;;7.97;7.37;;;;;;;12.11;39.10;100654.84;5064776;28;20204;-71
2022/03/22 07:15:15;;;;;;;11.07;7.70;;;;;;;12.24;37.90;100656.34;5059089;28;20204;-70
2022/03/22 07:17:42;;;;;;;11.70;7.60;;;;;;;12.43;39.22;100644.84;5062357;28;20287;-72
2022/03/22 07:20:10;;;;;;;9.53;7.63;;;;;;;12.59;37.87;100653.97;5068185;28;20573;-70
2022/03/22 07:22:37;;;;;;;11.13;7.07;;;;;;;12.82;38.35;100663.00;5070048;28;20204;-70
2022/03/22 07:25:04;;;;;;;7.90;7.33;;;;;;;12.83;37.64;100656.94;5057274;28;20197;-70
2022/03/22 07:27:34;;;;;;;9.63;7.37;;;;;;;13.14;38.53;100665.81;5067218;28;20298;-71
2022/03/22 07:30:01;;;;;;;8.10;7.43;;;;;;;13.35;37.28;100656.78;5062347;28;20589;-70
2022/03/22 07:32:28;;;;;;;8.87;7.97;;;;;;;13.48;36.78;100653.91;5066606;28;20208;-70
2022/03/22 07:34:58;;;;;;;10.37;7.40;;;;;;;13.61;36.96;100649.31;5064164;28;20223;-72
2022/03/22 07:37:25;;;;;;;10.00;7.83;;;;;;;13.86;37.62;100644.47;5065498;28;20219;-70
2022/03/22 07:39:52;;;;;;;7.87;7.13;;;;;;;14.00;36.68;100647.53;5060560;28;20204;-70
2022/03/22 07:42:19;;;;;;;8.80;7.90;;;;;;;14.10;35.60;100647.28;5068936;28;20721;-69
2022/03/22 07:44:47;;;;;;;7.80;7.07;;;;;;;14.25;35.75;100648.63;5062626;28;20296;-70
2022/03/22 07:47:15;;;;;;;8.10;7.40;;;;;;;14.40;35.18;100648.28;5066919;28;20288;-71
2022/03/22 07:55:11;;;;;;;7.80;7.03;;;;;;;14.77;34.97;100634.38;5065750;28;20269;-71
2022/03/22 07:57:38;;;;;;;8.70;7.40;;;;;;;15.02;36.85;100630.25;5060679;28;20315;-70
2022/03/22 08:00:08;;;;;;;7.77;7.27;;;;;;;15.10;34.74;100626.53;5065754;28;21471;-71
2022/03/22 08:02:36;;;;;;;8.60;7.43;;;;;;;15.20;35.69;100627.13;5062235;28;20204;-70
2022/03/22 08:05:05;;;;;;;9.07;6.80;;;;;;;15.25;34.54;100635.56;5066320;28;20200;-70
2022/03/22 08:07:32;;;;;;;7.87;7.23;;;;;;;15.46;34.44;100623.75;5067206;28;20223;-70
2022/03/22 08:09:59;;;;;;;7.10;6.50;;;;;;;15.60;34.55;100622.47;5055751;28;20208;-70
2022/03/22 08:12:26;;;;;;;7.13;6.50;;;;;;;15.76;33.44;100638.34;5061629;28;20682;-70
2022/03/22 08:14:53;;;;;;;9.07;8.13;;;;;;;15.86;32.82;100628.56;5066966;28;20207;-70
2022/03/22 08:17:23;;;;;;;7.60;6.60;;;;;;;16.05;33.98;100629.66;5061002;28;20208;-71
2022/03/22 08:19:50;;;;;;;8.93;7.83;;;;;;;16.18;33.86;100630.94;5062287;28;20292;-71
2022/03/22 08:22:17;;;;;;;7.37;6.57;;;;;;;16.17;33.75;100624.06;5061459;28;20223;-71
2022/03/22 08:24:44;;;;;;;8.63;7.23;;;;;;;16.29;33.79;100613.28;5065312;28;20572;-71
2022/03/22 08:27:11;;;;;;;8.93;7.87;;;;;;;16.30;33.02;100614.97;5064821;28;20196;-72
2022/03/22 08:29:38;;;;;;;7.13;6.50;;;;;;;16.33;33.92;100614.03;5059797;28;20579;-72
2022/03/22 08:32:06;;;;;;;9.83;8.13;;;;;;;16.37;33.53;100611.28;5056876;28;20306;-72
2022/03/22 08:34:34;;;;;;;8.23;6.30;;;;;;;16.39;34.46;100609.50;5058639;28;20294;-72
2022/03/22 08:37:03;;;;;;;6.63;6.13;;;;;;;16.57;34.05;100608.91;5065331;28;20295;-71
2022/03/22 08:39:29;;;;;;;6.40;6.00;;;;;;;16.60;32.71;100608.78;5067605;28;20208;-70
2022/03/22 08:41:56;;;;;;;6.77;6.23;;;;;;;16.78;33.13;100602.94;5058133;28;20226;-71
2022/03/22 08:44:23;;;;;;;7.33;6.63;;;;;;;16.93;34.33;100603.28;5066527;28;20204;-69
2022/03/22 08:46:51;;;;;;;9.00;6.93;;;;;;;17.03;33.37;100587.31;5068265;28;20212;-69
2022/03/22 08:49:18;;;;;;;6.07;5.67;;;;;;;17.10;33.95;100582.75;5064998;28;20671;-69
2022/03/22 08:51:46;;;;;;;6.63;6.07;;;;;;;17.15;35.36;100581.69;5065036;28;20299;-71
2022/03/22 08:54:14;;;;;;;6.53;6.03;;;;;;;17.27;34.47;100567.41;5066078;28;20204;-71
2022/03/22 08:56:41;;;;;;;6.20;5.80;;;;;;;17.41;34.44;100574.66;5060078;28;20200;-70
2022/03/22 08:59:07;;;;;;;5.63;4.90;;;;;;;17.51;32.66;100579.38;5058932;28;20768;-71
2022/03/22 09:01:34;;;;;;;6.23;5.73;;;;;;;17.51;33.02;100563.81;5064218;28;20546;-70
2022/03/22 09:06:47;;;;;;;9.60;4.83;;;;;;;17.20;33.47;100558.16;5055457;28;20699;-70
2022/03/22 09:09:14;;;;;;;5.87;5.47;;;;;;;17.06;33.72;100557.88;5060249;28;20200;-70
2022/03/22 09:11:41;;;;;;;4.80;4.50;;;;;;;16.58;33.43;100556.19;5061215;28;20211;-70
2022/03/22 09:14:08;;;;;;;5.27;4.97;;;;;;;16.48;32.98;100544.44;5063175;28;20200;-71
2022/03/22 09:16:36;;;;;;;4.90;4.50;;;;;;;16.43;34.10;100548.97;5061355;28;21546;-70
2022/03/22 09:19:03;;;;;;;26.37;11.57;;;;;;;16.07;35.08;100542.47;5062193;28;20669;-70
2022/03/22 09:21:30;;;;;;;5.03;4.53;;;;;;;16.02;35.27;100552.16;5061428;28;20327;-70
2022/03/22 09:23:58;;;;;;;5.23;4.93;;;;;;;16.02;35.01;100546.97;5064451;28;20201;-70
2022/03/22 09:26:25;;;;;;;4.73;4.43;;;;;;;16.18;34.57;100542.97;5053477;28;20582;-70
2022/03/22 09:28:53;;;;;;;4.47;4.20;;;;;;;16.24;34.54;100528.06;5055089;28;20215;-71
2022/03/22 09:31:22;;;;;;;5.27;4.67;;;;;;;16.12;35.35;100538.00;5065632;28;20223;-70
2022/03/22 09:33:50;;;;;;;4.03;3.83;;;;;;;16.07;35.85;100532.13;5066344;28;20251;-70
2022/03/22 09:36:17;;;;;;;4.77;4.03;;;;;;;16.39;36.13;100529.25;5060313;28;20675;-71
2022/03/22 09:38:45;;;;;;;5.13;4.63;;;;;;;16.47;34.87;100519.47;5063107;28;20690;-71
2022/03/22 09:41:15;;;;;;;6.87;4.20;;;;;;;16.11;34.97;100503.53;5058924;28;20221;-71
2022/03/22 09:43:47;;;;;;;4.17;3.87;;;;;;;15.81;34.71;100512.31;5058657;28;20296;-70
2022/03/22 09:46:18;;;;;;;4.67;4.30;;;;;;;15.82;35.15;100519.19;5060973;28;20639;-72
2022/03/22 09:48:46;;;;;;;4.30;4.00;;;;;;;15.88;36.33;100512.97;5069355;28;20196;-71
2022/03/22 09:53:58;;;;;;;4.67;4.47;;;;;;;16.28;35.58;100521.88;5057324;28;20207;-70
2022/03/22 09:56:30;;;;;;;4.87;4.57;;;;;;;16.58;37.15;100517.34;5064482;28;20307;-71
2022/03/22 09:58:58;;;;;;;4.73;4.43;;;;;;;16.55;36.34;100507.13;5068774;28;20656;-71
2022/03/22 10:01:25;;;;;;;9.00;3.77;;;;;;;16.61;34.41;100514.66;5055098;28;20225;-71
2022/03/22 10:04:00;;;;;;;4.00;3.80;;;;;;;16.46;34.60;100501.41;5053715;28;20204;-71
2022/03/22 10:06:28;;;;;;;4.23;3.83;;;;;;;16.27;35.43;100503.81;5057843;28;20223;-71
2022/03/22 10:08:55;;;;;;;3.63;3.43;;;;;;;16.13;34.91;100508.63;5063141;28;20214;-71
2022/03/22 10:11:22;;;;;;;4.10;3.87;;;;;;;16.00;35.61;100509.94;5059933;28;20219;-70
2022/03/22 10:13:55;;;;;;;3.67;3.37;;;;;;;16.06;35.07;100495.06;5061462;28;20213;-70
2022/03/22 10:16:23;;;;;;;5.37;3.50;;;;;;;16.37;36.36;100481.88;5063045;28;20212;-70
2022/03/22 10:18:50;;;;;;;8.57;4.10;;;;;;;16.58;35.60;100486.28;5056430;28;20606;-70
2022/03/22 10:21:17;;;;;;;3.63;3.10;;;;;;;16.76;35.37;100472.66;5063377;28;20227;-72
2022/03/22 10:23:51;;;;;;;14.40;4.43;;;;;;;16.73;35.78;100449.47;5064161;28;20303;-70
2022/03/22 10:26:18;;;;;;;9.47;4.33;;;;;;;16.83;35.41;100475.03;5064381;28;20287;-70
2022/03/22 10:28:55;;;;;;;20.87;3.73;;;;;;;16.37;34.94;100471.53;5059433;28;20222;-70
2022/03/22 10:31:34;;;;;;;4.33;3.50;;;;;;;16.17;36.43;100480.03;5058387;28;20207;-70
2022/03/22 10:34:02;;;;;;;6.13;3.63;;;;;;;16.05;36.37;100469.28;5065022;28;20207;-70
2022/03/22 10:36:29;;;;;;;8.90;2.93;;;;;;;15.77;35.04;100469.38;5065720;28;20310;-70
2022/03/22 10:38:57;;;;;;;3.70;3.40;;;;;;;15.86;35.10;100468.22;5067780;28;20219;-70
2022/03/22 10:41:26;;;;;;;2.87;2.33;;;;;;;15.55;35.05;100456.34;5069313;28;20220;-69
2022/03/22 10:44:05;;;;;;;5.63;5.13;;;;;;;15.70;34.02;100448.03;5060715;28;20207;-70
2022/03/22 10:46:33;;;;;;;14.00;6.33;;;;;;;16.01;34.02;100459.91;5056841;28;20202;-70
2022/03/22 10:49:06;;;;;;;13.37;9.07;;;;;;;15.78;33.77;100460.72;5060439;28;20291;-69
2022/03/22 10:51:34;;;;;;;2.97;2.80;;;;;;;15.75;34.14;100451.34;5061669;28;20203;-69
2022/03/22 10:54:01;;;;;;;4.07;3.17;;;;;;;15.53;35.95;100465.88;5068026;28;20295;-69
2022/03/22 10:56:30;;;;;;;6.40;2.97;;;;;;;15.36;37.59;100452.66;5067636;28;20752;-70
2022/03/22 10:58:59;;;;;;;4.77;2.80;;;;;;;15.30;35.41;100458.00;5066504;28;20296;-70
2022/03/22 11:01:27;;;;;;;5.73;2.97;;;;;;;15.24;33.90;100456.47;5064603;28;20228;-70
2022/03/22 11:03:57;;;;;;;2.77;2.60;;;;;;;15.09;34.24;100453.53;5066019;28;20591;-70
2022/03/22 11:06:30;;;;;;;6.80;2.60;;;;;;;15.39;35.57;100438.78;5066747;28;20208;-70
2022/03/22 11:08:57;;;;;;;6.30;4.30;;;;;;;15.70;33.88;100437.72;5067513;28;20222;-70
2022/03/22 11:11:24;;;;;;;7.07;5.57;;;;;;;15.88;33.83;100446.59;5062133;28;20265;-70
2022/03/22 11:13:51;;;;;;;5.10;3.37;;;;;;;15.56;34.09;100445.09;5060494;28;20287;-69
2022/03/22 11:16:20;;;;;;;5.67;3.77;;;;;;;15.37;34.25;100436.25;5062642;28;20204;-70
2022/03/22 11:18:50;;;;;;;4.30;3.17;;;;;;;15.17;34.14;100441.22;5065476;28;20584;-69
2022/03/22 11:21:19;;;;;;;7.00;4.37;;;;;;;15.15;33.80;100437.84;5065524;28;20290;-70
2022/03/22 11:23:47;;;;;;;4.13;3.83;;;;;;;14.95;33.43;100440.22;5067486;28;20637;-69
2022/03/22 11:26:16;;;;;;;4.57;4.17;;;;;;;14.83;33.36;100430.28;5064238;28;20666;-68
2022/03/22 11:28:45;;;;;;;9.87;3.50;;;;;;;14.94;33.39;100431.63;5064865;28;20200;-71
2022/03/22 11:31:16;;;;;;;4.17;3.77;;;;;;;15.20;33.59;100430.78;5068257;28;20673;-70
2022/03/22 11:36:40;;;;;;;8.83;5.10;;;;;;;15.64;34.57;100426.72;5069756;28;20202;-70
2022/03/22 11:39:08;;;;;;;3.93;3.73;;;;;;;15.77;35.56;100427.19;5054923;28;20205;-70
2022/03/22 11:44:27;;;;;;;5.50;5.00;;;;;;;15.70;32.88;100426.56;5065286;28;20207;-73
2022/03/22 11:47:07;;;;;;;5.90;4.67;;;;;;;15.53;32.28;100395.25;5061077;28;20213;-72
2022/03/22 11:49:49;;;;;;;5.20;4.70;;;;;;;15.55;32.31;100386.56;5065977;28;20277;-70
2022/03/22 11:52:18;;;;;;;4.60;4.40;;;;;;;15.66;31.78;100407.72;5065698;28;20204;-70
2022/03/22 11:55:00;;;;;;;5.33;4.83;;;;;;;15.52;31.51;100412.50;5065564;28;20640;-70
2022/03/22 11:57:28;;;;;;;4.87;4.50;;;;;;;15.45;32.82;100403.22;5066280;28;20607;-71
2022/03/22 11:59:55;;;;;;;13.80;5.47;;;;;;;15.48;33.66;100400.56;5065601;28;20207;-70
2022/03/22 12:02:30;;;;;;;5.30;4.80;;;;;;;15.56;34.14;100396.00;5065491;28;20223;-70
2022/03/22 12:04:58;;;;;;;4.20;3.90;;;;;;;15.67;34.04;100401.63;5065871;28;20211;-69
2022/03/22 12:07:28;;;;;;;3.73;3.50;;;;;;;15.72;33.07;100393.72;5066157;28;20208;-71
2022/03/22 12:10:04;;;;;;;5.13;4.63;;;;;;;15.68;33.49;100392.97;5062922;28;20197;-70